Terminal Aerodrome Forecast
Issued by NWS St Louis, MO

Home | Current Version | Previous Version | Text Only | Print | Product List | Glossary On
Versions: 1 2 3 4 5 6 7 8 9 10 11 12 13 14 15 16 17 18 19 20 21
000
FTUS43 KLSX 231500 AAB
TAFCOU
TAF AMD
KCOU 231557Z 2316/2412 16010KT 3SM -RA BR OVC006
     FM240300 29012G18KT 4SM -RA SCT007 OVC012
     FM240700 30015G25KT 4SM -RASN OVC007=

USA.gov is the U.S. government's official web portal to all federal, state and local government web resources and services.